Time;durP1;ratioP1;P1;durP2;ratioP2;P2;SDS_P1;SDS_P2;PMS_P1;PMS_P2;Temp;Humidity;BMP_temperature;BMP_pressure;BME280_temperature;BME280_humidity;BME280_pressure;Samples;Min_cycle;Max_cycle;Signal;HPM_P1;HPM_P2
2022/05/17 00:01:22;;;;;;;9.38;3.30;;;21.50;61.20;;;;;;5030993;28;20040;-64
2022/05/17 00:03:48;;;;;;;7.38;2.40;;;21.50;60.90;;;;;;5045088;28;20096;-65
2022/05/17 00:06:14;;;;;;;6.70;2.17;;;21.50;61.00;;;;;;5030500;28;20514;-64
2022/05/17 00:08:40;;;;;;;8.13;2.40;;;21.50;61.10;;;;;;5038874;28;20021;-65
2022/05/17 00:11:07;;;;;;;6.97;2.25;;;21.50;61.00;;;;;;5034969;28;20033;-64
2022/05/17 00:13:33;;;;;;;7.03;2.50;;;21.50;61.10;;;;;;5035220;28;20532;-65
2022/05/17 00:15:58;;;;;;;7.55;2.60;;;21.40;61.00;;;;;;5034504;28;20060;-64
2022/05/17 00:18:25;;;;;;;7.88;2.50;;;21.50;61.00;;;;;;5039737;28;20060;-65
2022/05/17 00:20:51;;;;;;;6.68;2.35;;;21.50;61.00;;;;;;5028474;28;20033;-64
2022/05/17 00:23:17;;;;;;;9.07;2.78;;;21.50;61.10;;;;;;5033937;28;20043;-64
2022/05/17 00:25:45;;;;;;;8.30;2.58;;;21.40;61.10;;;;;;5036877;28;20024;-65
2022/05/17 00:28:13;;;;;;;8.18;2.50;;;21.40;61.20;;;;;;5039950;28;20033;-65
2022/05/17 00:30:39;;;;;;;5.75;2.30;;;21.40;61.20;;;;;;5031833;28;20556;-65
2022/05/17 00:33:05;;;;;;;7.20;2.35;;;21.40;61.10;;;;;;5036559;28;20032;-65
2022/05/17 00:35:31;;;;;;;6.25;2.45;;;21.40;61.10;;;;;;5032837;28;20029;-65
2022/05/17 00:37:57;;;;;;;8.07;2.40;;;21.40;61.00;;;;;;5041321;28;20100;-64
2022/05/17 00:40:22;;;;;;;7.85;2.15;;;21.40;61.10;;;;;;5034054;28;20049;-64
2022/05/17 00:42:48;;;;;;;8.73;2.58;;;21.40;61.20;;;;;;5040087;28;20032;-65
2022/05/17 00:45:14;;;;;;;7.75;2.65;;;21.40;61.30;;;;;;5035990;28;20068;-65
2022/05/17 00:47:42;;;;;;;7.07;2.10;;;21.40;61.20;;;;;;5013264;28;20482;-64
2022/05/17 00:50:35;;;;;;;6.40;2.67;;;21.40;61.20;;;;;;5044855;28;20545;-64
2022/05/17 00:53:09;;;;;;;8.98;2.53;;;21.40;61.20;;;;;;5011381;28;20018;-64
2022/05/17 00:55:39;;;;;;;9.65;2.45;;;21.40;61.20;;;;;;5011593;28;20032;-65
2022/05/17 00:58:45;;;;;;;7.55;2.17;;;21.30;61.10;;;;;;5043733;28;20461;-64
2022/05/17 01:01:14;;;;;;;6.85;2.30;;;21.40;61.40;;;;;;4975460;28;20229;-64
2022/05/17 01:03:47;;;;;;;7.00;2.28;;;21.30;61.30;;;;;;5000230;28;20402;-64
2022/05/17 01:06:13;;;;;;;7.45;2.55;;;21.30;61.30;;;;;;4996287;28;20567;-65
2022/05/17 01:08:39;;;;;;;8.00;2.60;;;21.30;61.30;;;;;;4986249;28;20554;-64
2022/05/17 01:11:04;;;;;;;7.90;2.55;;;21.30;61.30;;;;;;4997710;28;20081;-64
2022/05/17 01:16:14;;;;;;;7.63;2.23;;;21.30;61.20;;;;;;4991048;28;20073;-64
2022/05/17 01:18:41;;;;;;;5.65;2.20;;;21.30;61.40;;;;;;4978177;28;20702;-65
2022/05/17 01:21:08;;;;;;;7.68;2.55;;;21.30;61.30;;;;;;4998854;28;20070;-65
2022/05/17 01:23:34;;;;;;;7.75;2.70;;;21.30;61.30;;;;;;4996005;28;20056;-65
2022/05/17 01:26:00;;;;;;;7.45;2.40;;;21.30;61.40;;;;;;4997155;28;20453;-64
2022/05/17 01:28:27;;;;;;;8.68;2.30;;;21.20;61.30;;;;;;4995039;28;20743;-65
2022/05/17 01:30:54;;;;;;;7.47;2.30;;;21.20;61.20;;;;;;4995726;28;20439;-65
2022/05/17 01:33:22;;;;;;;6.78;2.30;;;21.20;61.20;;;;;;5000901;28;20030;-64
2022/05/17 01:35:47;;;;;;;8.52;2.10;;;21.20;61.20;;;;;;5001758;28;20124;-65
2022/05/17 01:38:13;;;;;;;5.82;2.20;;;21.20;61.30;;;;;;5018953;28;20096;-65
2022/05/17 01:40:39;;;;;;;7.15;2.47;;;21.20;61.30;;;;;;5025471;28;20045;-65
2022/05/17 01:43:05;;;;;;;5.65;2.20;;;21.20;61.30;;;;;;5014540;28;20034;-65
2022/05/17 01:45:30;;;;;;;6.68;2.35;;;21.20;61.30;;;;;;5027893;28;20026;-65
2022/05/17 01:47:56;;;;;;;4.80;1.85;;;21.20;61.40;;;;;;5037408;28;20115;-65
2022/05/17 01:50:23;;;;;;;5.93;2.22;;;21.20;61.40;;;;;;5037035;28;20061;-65
2022/05/17 01:52:48;;;;;;;6.32;2.05;;;21.20;61.40;;;;;;5033618;28;20038;-64
2022/05/17 01:55:14;;;;;;;7.25;2.10;;;21.20;61.30;;;;;;5036397;28;20039;-64
2022/05/17 01:57:40;;;;;;;8.40;2.33;;;21.20;61.30;;;;;;5032780;28;20516;-65
2022/05/17 02:00:08;;;;;;;6.55;2.20;;;21.10;61.30;;;;;;5039390;28;20037;-65
2022/05/17 02:02:34;;;;;;;5.57;2.20;;;21.10;61.30;;;;;;5034164;28;20025;-64
2022/05/17 02:04:59;;;;;;;10.55;2.50;;;21.10;61.30;;;;;;5037625;28;20120;-65
2022/05/17 02:07:25;;;;;;;6.75;2.10;;;21.10;61.30;;;;;;5034386;28;20029;-65
2022/05/17 02:09:51;;;;;;;6.28;2.00;;;21.10;61.40;;;;;;5033638;28;20115;-65
2022/05/17 02:12:17;;;;;;;6.00;2.05;;;21.10;61.40;;;;;;5034099;28;20040;-65
2022/05/17 02:14:43;;;;;;;6.20;2.17;;;21.10;61.40;;;;;;5037039;28;20025;-65
2022/05/17 02:17:09;;;;;;;5.05;2.20;;;21.10;62.40;;;;;;5039411;28;20037;-65
2022/05/17 02:19:35;;;;;;;5.60;2.33;;;21.10;61.40;;;;;;5035875;28;20025;-65
2022/05/17 02:22:00;;;;;;;6.30;2.20;;;21.10;61.40;;;;;;5034013;28;20109;-65
2022/05/17 02:24:27;;;;;;;6.30;2.13;;;21.10;61.40;;;;;;5037805;28;20060;-65
2022/05/17 02:26:54;;;;;;;7.82;2.22;;;21.10;61.40;;;;;;5032840;28;20032;-65
2022/05/17 02:29:19;;;;;;;6.15;2.13;;;21.10;61.50;;;;;;5036285;28;20083;-64
2022/05/17 02:31:45;;;;;;;5.75;2.00;;;21.00;61.40;;;;;;5032331;28;20021;-65
2022/05/17 02:34:11;;;;;;;5.18;2.28;;;21.10;61.50;;;;;;5032893;28;20112;-65
2022/05/17 02:36:36;;;;;;;6.95;2.30;;;21.10;61.50;;;;;;5037324;28;20108;-64
2022/05/17 02:39:02;;;;;;;4.82;1.92;;;21.00;61.40;;;;;;5033659;28;20026;-65
2022/05/17 02:41:28;;;;;;;6.22;2.10;;;21.00;61.40;;;;;;5037645;28;20039;-65
2022/05/17 02:43:53;;;;;;;7.32;2.30;;;21.00;61.50;;;;;;5034250;28;20478;-64
2022/05/17 02:46:19;;;;;;;5.65;2.05;;;21.00;61.40;;;;;;5034144;28;20059;-65
2022/05/17 02:48:45;;;;;;;6.38;2.20;;;21.00;61.40;;;;;;5034043;28;20021;-65
2022/05/17 02:51:12;;;;;;;5.00;2.30;;;21.00;61.50;;;;;;5034376;28;20401;-65
2022/05/17 02:53:38;;;;;;;6.15;2.30;;;21.00;61.50;;;;;;5031475;28;20033;-65
2022/05/17 02:56:04;;;;;;;4.97;1.92;;;21.00;61.60;;;;;;5032866;28;20048;-64
2022/05/17 02:58:30;;;;;;;5.60;1.98;;;21.00;61.60;;;;;;5035818;28;20497;-65
2022/05/17 03:00:56;;;;;;;5.28;1.90;;;21.00;61.60;;;;;;5032233;28;20051;-65
2022/05/17 03:03:21;;;;;;;5.25;2.10;;;21.00;61.60;;;;;;5032932;28;20037;-64
2022/05/17 03:05:47;;;;;;;7.03;1.90;;;21.00;61.60;;;;;;5035105;28;20541;-65
2022/05/17 03:08:12;;;;;;;7.35;2.05;;;21.00;61.60;;;;;;5035853;28;20022;-65
2022/05/17 03:10:38;;;;;;;5.68;2.10;;;21.00;61.60;;;;;;5036318;28;20486;-65
2022/05/17 03:13:04;;;;;;;6.95;2.10;;;20.90;61.60;;;;;;5039281;28;20449;-65
2022/05/17 03:15:29;;;;;;;5.57;1.88;;;20.90;61.60;;;;;;5032346;28;20044;-65
2022/05/17 03:17:55;;;;;;;6.88;2.10;;;20.90;61.60;;;;;;5036974;28;20090;-64
2022/05/17 03:20:21;;;;;;;5.47;1.88;;;20.90;61.60;;;;;;5034245;28;20462;-65
2022/05/17 03:22:46;;;;;;;3.72;1.85;;;20.90;61.60;;;;;;5036998;28;20557;-65
2022/05/17 03:25:12;;;;;;;6.82;1.92;;;20.90;61.60;;;;;;5030874;28;20029;-64
2022/05/17 03:27:38;;;;;;;6.38;1.90;;;20.90;61.70;;;;;;5036792;28;20667;-65
2022/05/17 03:30:04;;;;;;;5.57;2.08;;;20.90;61.70;;;;;;5037810;28;20533;-65
2022/05/17 03:32:30;;;;;;;4.82;1.90;;;20.90;61.70;;;;;;5032441;28;20033;-65
2022/05/17 03:34:56;;;;;;;5.85;2.22;;;20.90;61.70;;;;;;5036283;28;20029;-65
2022/05/17 03:37:21;;;;;;;5.95;2.15;;;20.90;61.70;;;;;;5032287;28;20029;-65
2022/05/17 03:39:47;;;;;;;5.03;1.80;;;20.90;61.60;;;;;;5043139;28;20090;-65
2022/05/17 03:42:13;;;;;;;4.13;1.80;;;20.90;61.60;;;;;;5029664;28;20034;-65
2022/05/17 03:44:39;;;;;;;5.90;1.90;;;20.90;61.60;;;;;;5033424;28;20025;-65
2022/05/17 03:47:06;;;;;;;4.63;1.80;;;20.90;62.60;;;;;;5029610;28;20049;-65
2022/05/17 03:49:31;;;;;;;6.45;1.90;;;20.90;61.60;;;;;;5036778;28;20724;-65
2022/05/17 03:51:57;;;;;;;6.30;1.98;;;20.80;61.50;;;;;;5032096;28;20025;-64
2022/05/17 03:54:23;;;;;;;6.00;2.00;;;20.80;61.50;;;;;;5028904;28;20040;-65
2022/05/17 03:56:49;;;;;;;4.78;1.70;;;20.80;61.60;;;;;;5038254;28;20033;-65
2022/05/17 03:59:15;;;;;;;3.88;1.65;;;20.80;61.50;;;;;;5037387;28;20017;-64
2022/05/17 04:01:40;;;;;;;3.78;1.80;;;20.80;61.50;;;;;;5027562;28;20034;-65
2022/05/17 04:04:06;;;;;;;4.50;1.90;;;20.80;61.50;;;;;;5034041;28;20029;-64
2022/05/17 04:06:32;;;;;;;7.38;2.22;;;20.80;61.50;;;;;;5035561;28;20108;-64
2022/05/17 04:08:57;;;;;;;4.18;1.88;;;20.80;61.60;;;;;;5029598;28;20115;-65
2022/05/17 04:11:23;;;;;;;4.90;2.03;;;20.80;61.50;;;;;;5037521;28;20033;-64
2022/05/17 04:13:48;;;;;;;3.55;1.65;;;20.80;61.60;;;;;;5038767;28;20462;-65
2022/05/17 04:16:14;;;;;;;5.00;2.10;;;20.80;61.50;;;;;;5027845;28;20486;-65
2022/05/17 04:18:40;;;;;;;5.18;1.98;;;20.80;61.50;;;;;;5035001;28;20513;-64
2022/05/17 04:21:08;;;;;;;6.18;1.90;;;20.80;61.50;;;;;;5037548;28;20116;-65
2022/05/17 04:23:34;;;;;;;4.28;1.67;;;20.70;61.50;;;;;;5038280;28;20028;-65
2022/05/17 04:26:00;;;;;;;5.20;1.70;;;20.70;61.50;;;;;;5036561;28;20410;-65
2022/05/17 04:28:26;;;;;;;6.00;1.85;;;20.70;61.40;;;;;;5034890;28;20020;-65
2022/05/17 04:30:52;;;;;;;5.88;1.90;;;20.70;61.40;;;;;;5031698;28;20094;-65
2022/05/17 04:33:21;;;;;;;4.22;1.73;;;20.70;61.50;;;;;;5033951;28;20455;-65
2022/05/17 04:35:46;;;;;;;5.22;2.00;;;20.70;61.40;;;;;;5037211;28;20378;-65
2022/05/17 04:38:12;;;;;;;4.20;1.80;;;20.70;61.50;;;;;;5033191;28;20079;-65
2022/05/17 04:40:39;;;;;;;5.15;1.80;;;20.70;61.40;;;;;;5036740;28;20791;-64
2022/05/17 04:43:05;;;;;;;5.15;1.90;;;20.70;61.40;;;;;;5041294;28;20048;-65
2022/05/17 04:45:30;;;;;;;4.45;1.75;;;20.70;61.40;;;;;;5041951;28;20529;-65
2022/05/17 04:47:56;;;;;;;4.18;1.70;;;20.70;61.40;;;;;;5036284;28;20077;-64
2022/05/17 04:50:22;;;;;;;4.43;1.70;;;20.70;61.40;;;;;;5040415;28;20037;-67
2022/05/17 04:52:48;;;;;;;5.28;1.83;;;20.70;61.40;;;;;;5040733;28;20544;-66
2022/05/17 04:55:15;;;;;;;6.03;1.77;;;20.70;61.60;;;;;;5039304;28;20048;-65
2022/05/17 04:57:41;;;;;;;4.95;1.80;;;20.70;61.40;;;;;;5039372;28;20024;-66
2022/05/17 05:00:12;;;;;;;5.18;1.88;;;20.70;61.40;;;;;;5038232;28;20037;-66
2022/05/17 05:02:37;;;;;;;4.78;1.95;;;20.70;61.40;;;;;;5036979;28;20086;-66
2022/05/17 05:05:04;;;;;;;4.45;1.50;;;20.70;61.40;;;;;;5035047;28;20037;-66
2022/05/17 05:07:30;;;;;;;6.53;1.92;;;20.70;61.40;;;;;;5038382;28;20555;-66
2022/05/17 05:09:59;;;;;;;4.70;1.70;;;20.70;61.00;;;;;;5036501;28;20111;-66
2022/05/17 05:12:24;;;;;;;6.45;1.90;;;20.70;60.40;;;;;;5039649;28;20033;-66
2022/05/17 05:14:50;;;;;;;7.97;1.85;;;20.60;59.90;;;;;;5044073;28;20033;-66
2022/05/17 05:17:16;;;;;;;6.35;1.70;;;20.60;60.30;;;;;;5036960;28;20077;-66
2022/05/17 05:19:41;;;;;;;8.73;1.90;;;20.60;59.90;;;;;;5040034;28;20072;-66
2022/05/17 05:22:07;;;;;;;9.75;2.08;;;20.60;59.80;;;;;;5045091;28;20793;-66
2022/05/17 05:24:33;;;;;;;7.80;1.80;;;20.60;59.30;;;;;;5042418;28;20036;-66
2022/05/17 05:26:59;;;;;;;7.88;2.05;;;20.50;58.90;;;;;;5043342;28;20504;-66
2022/05/17 05:29:25;;;;;;;11.57;2.03;;;20.60;59.40;;;;;;5037411;28;20056;-67
2022/05/17 05:31:51;;;;;;;9.30;1.95;;;20.60;59.50;;;;;;5043303;28;20055;-67
2022/05/17 05:34:17;;;;;;;9.52;2.05;;;20.60;59.80;;;;;;5034590;28;20072;-67
2022/05/17 05:36:43;;;;;;;9.88;2.17;;;20.60;60.40;;;;;;5042700;28;20024;-66
2022/05/17 05:39:09;;;;;;;10.57;2.40;;;20.70;60.80;;;;;;5032628;28;20514;-67
2022/05/17 05:41:35;;;;;;;10.35;2.00;;;20.70;60.70;;;;;;5044929;28;20334;-66
2022/05/17 05:44:00;;;;;;;12.07;2.00;;;20.70;60.60;;;;;;5032950;28;20034;-67
2022/05/17 05:46:27;;;;;;;7.60;2.38;;;20.70;60.80;;;;;;5040366;28;20132;-67
2022/05/17 05:48:53;;;;;;;7.65;2.30;;;20.70;60.90;;;;;;5032399;28;20037;-66
2022/05/17 05:51:19;;;;;;;9.85;1.98;;;20.70;61.00;;;;;;5032108;28;20033;-66
2022/05/17 05:53:44;;;;;;;8.60;1.95;;;20.70;61.00;;;;;;5034874;28;20022;-67
2022/05/17 05:56:11;;;;;;;9.88;2.20;;;20.70;61.00;;;;;;5041083;28;20036;-66
2022/05/17 05:58:39;;;;;;;8.15;1.85;;;20.80;61.10;;;;;;5033454;28;20029;-66
2022/05/17 06:01:05;;;;;;;8.15;2.20;;;20.70;61.20;;;;;;5034004;28;20045;-67
2022/05/17 06:03:31;;;;;;;11.00;2.20;;;20.80;61.30;;;;;;5038454;28;20033;-67
2022/05/17 06:05:57;;;;;;;9.65;2.20;;;20.80;61.30;;;;;;5037009;28;20371;-67
2022/05/17 06:08:23;;;;;;;8.52;2.05;;;20.70;61.30;;;;;;5037666;28;20036;-67
2022/05/17 06:10:49;;;;;;;10.07;2.13;;;20.80;61.40;;;;;;5035599;28;20033;-66
2022/05/17 06:13:16;;;;;;;8.25;2.30;;;20.80;61.40;;;;;;5036242;28;20064;-66
2022/05/17 06:15:42;;;;;;;9.00;1.90;;;20.80;61.40;;;;;;5036896;28;20120;-67
2022/05/17 06:18:08;;;;;;;10.30;2.00;;;20.80;61.40;;;;;;5032438;28;20577;-67
2022/05/17 06:20:34;;;;;;;8.60;2.17;;;20.80;62.40;;;;;;5039795;28;20029;-66
2022/05/17 06:22:59;;;;;;;6.78;1.98;;;20.80;61.40;;;;;;5036442;28;20021;-66
2022/05/17 06:25:25;;;;;;;9.15;2.35;;;20.80;61.40;;;;;;5035397;28;20025;-67
2022/05/17 06:27:51;;;;;;;7.85;1.90;;;20.80;61.40;;;;;;5032894;28;20489;-67
2022/05/17 06:30:17;;;;;;;8.90;2.22;;;20.80;61.50;;;;;;5035081;28;20517;-67
2022/05/17 06:32:43;;;;;;;9.20;2.10;;;20.80;61.40;;;;;;5033510;28;20025;-67
2022/05/17 06:35:09;;;;;;;8.82;2.08;;;20.90;61.40;;;;;;5039141;28;20025;-67
2022/05/17 06:37:35;;;;;;;8.90;2.15;;;20.90;61.30;;;;;;5041284;28;20036;-67
2022/05/17 06:40:01;;;;;;;8.40;2.00;;;20.90;61.30;;;;;;5037946;28;20041;-67
2022/05/17 06:42:29;;;;;;;8.13;2.00;;;20.90;61.30;;;;;;5032781;28;20024;-67
2022/05/17 06:44:55;;;;;;;7.45;2.03;;;20.90;61.30;;;;;;5031687;28;20132;-66
2022/05/17 06:47:21;;;;;;;8.75;2.10;;;20.90;61.20;;;;;;5034579;28;20080;-67
2022/05/17 06:49:46;;;;;;;8.50;2.10;;;20.90;61.30;;;;;;5035912;28;20024;-67
2022/05/17 06:52:12;;;;;;;4.93;1.75;;;20.90;61.30;;;;;;5039093;28;20163;-67
2022/05/17 06:54:40;;;;;;;6.72;1.80;;;20.90;61.30;;;;;;5037991;28;20024;-67
2022/05/17 06:57:07;;;;;;;8.35;2.13;;;20.90;61.30;;;;;;5032403;28;20083;-67
2022/05/17 06:59:33;;;;;;;8.85;2.00;;;20.90;61.20;;;;;;5042406;28;20381;-67
2022/05/17 07:02:00;;;;;;;5.80;1.95;;;20.90;61.20;;;;;;5037565;28;20099;-66
2022/05/17 07:04:28;;;;;;;7.70;2.08;;;20.90;61.20;;;;;;5034834;28;20405;-67
2022/05/17 07:06:55;;;;;;;9.32;2.10;;;21.00;61.20;;;;;;5036246;28;20564;-67
2022/05/17 07:09:22;;;;;;;6.20;1.90;;;21.00;61.10;;;;;;5034091;28;20033;-66
2022/05/17 07:14:32;;;;;;;;;;;21.00;61.00;;;;;;5034544;28;20036;-65
2022/05/17 07:16:58;;;;;;;6.38;1.90;;;21.00;60.90;;;;;;5031447;28;19913;-66
2022/05/17 07:19:24;;;;;;;7.57;1.70;;;21.00;60.90;;;;;;5034152;28;20044;-66
2022/05/17 07:21:50;;;;;;;6.05;1.80;;;21.00;61.10;;;;;;5036867;28;20511;-67
2022/05/17 07:24:19;;;;;;;7.18;1.92;;;20.90;61.00;;;;;;5033205;28;20029;-67
2022/05/17 07:26:44;;;;;;;7.38;1.88;;;20.90;61.10;;;;;;5035682;28;20418;-66
2022/05/17 07:29:10;;;;;;;5.32;1.65;;;21.00;61.10;;;;;;5036118;28;20033;-66
2022/05/17 07:31:36;;;;;;;7.60;1.80;;;21.00;61.20;;;;;;5035077;28;20025;-66
2022/05/17 07:34:03;;;;;;;7.60;1.90;;;21.00;61.20;;;;;;5031191;28;20548;-67
2022/05/17 07:36:28;;;;;;;8.27;2.15;;;21.00;61.10;;;;;;5032374;28;20025;-66
2022/05/17 07:38:54;;;;;;;6.57;1.80;;;21.00;61.10;;;;;;5031769;28;20036;-67
2022/05/17 07:41:20;;;;;;;7.25;2.03;;;21.00;60.90;;;;;;5032937;28;20044;-66
2022/05/17 07:43:46;;;;;;;8.45;2.13;;;21.10;61.00;;;;;;5034724;28;20021;-67
2022/05/17 07:46:11;;;;;;;6.13;2.00;;;21.10;61.00;;;;;;5036869;28;20049;-67
2022/05/17 07:48:37;;;;;;;6.35;1.80;;;21.00;60.90;;;;;;5039791;28;20075;-66
2022/05/17 07:51:05;;;;;;;8.13;2.00;;;21.10;60.90;;;;;;5038380;28;20032;-67
2022/05/17 07:53:31;;;;;;;6.07;1.90;;;21.10;60.90;;;;;;5034567;28;20057;-66
2022/05/17 07:55:56;;;;;;;4.38;1.50;;;21.10;60.90;;;;;;5035898;28;20064;-66
2022/05/17 07:58:24;;;;;;;6.45;1.80;;;21.10;61.00;;;;;;5034802;28;20055;-67
2022/05/17 08:00:50;;;;;;;6.63;2.00;;;21.10;60.90;;;;;;5032024;28;20041;-66
2022/05/17 08:03:16;;;;;;;5.65;1.80;;;21.10;60.90;;;;;;5032310;28;20030;-66
2022/05/17 08:05:43;;;;;;;7.28;2.08;;;21.20;60.90;;;;;;5035004;28;20036;-67
2022/05/17 08:08:08;;;;;;;5.47;1.98;;;21.20;60.60;;;;;;5035918;28;20064;-66
2022/05/17 08:10:34;;;;;;;5.88;1.80;;;21.20;60.60;;;;;;5034631;28;20048;-66
2022/05/17 08:12:59;;;;;;;4.95;1.85;;;21.20;60.60;;;;;;5034832;28;20055;-66
2022/05/17 08:15:27;;;;;;;6.32;1.98;;;21.20;60.70;;;;;;5033370;28;20033;-66
2022/05/17 08:17:53;;;;;;;5.45;1.83;;;21.20;60.90;;;;;;5034625;28;20014;-67
2022/05/17 08:20:19;;;;;;;5.78;1.92;;;21.30;60.70;;;;;;5034181;28;20520;-66
2022/05/17 08:22:45;;;;;;;6.93;2.00;;;21.30;60.70;;;;;;5038314;28;20040;-67
2022/05/17 08:27:57;;;;;;;4.95;1.58;;;21.30;60.50;;;;;;5035776;28;20044;-66
2022/05/17 08:30:24;;;;;;;7.38;1.95;;;21.30;60.40;;;;;;5033251;28;20044;-66
2022/05/17 08:33:14;;;;;;;4.72;1.80;;;21.40;60.50;;;;;;5035450;28;20021;-67
2022/05/17 08:35:46;;;;;;;5.57;1.80;;;21.40;60.50;;;;;;5034269;28;20292;-67
2022/05/17 08:38:17;;;;;;;4.20;1.77;;;21.40;60.50;;;;;;5033773;28;20021;-67
2022/05/17 08:40:57;;;;;;;7.78;1.67;;;21.40;60.30;;;;;;5037286;28;20032;-66
2022/05/17 08:43:32;;;;;;;5.72;1.90;;;21.40;60.40;;;;;;5031600;28;20027;-66
2022/05/17 08:45:58;;;;;;;;;;;21.40;60.30;;;;;;5042654;28;20124;-66
2022/05/17 08:48:23;;;;;;;5.72;1.73;;;21.40;60.00;;;;;;5034106;28;20129;-66
2022/05/17 08:50:49;;;;;;;5.00;1.70;;;21.50;60.20;;;;;;5048133;28;20487;-66
2022/05/17 08:53:17;;;;;;;5.43;1.88;;;21.40;60.30;;;;;;5032971;28;20037;-66
2022/05/17 08:55:43;;;;;;;3.63;1.55;;;21.50;60.40;;;;;;5035570;28;20021;-66
2022/05/17 08:58:20;;;;;;;5.00;1.70;;;21.50;60.30;;;;;;5034580;28;20074;-66
2022/05/17 09:01:06;;;;;;;5.70;1.70;;;21.50;60.50;;;;;;5064279;28;20497;-66
2022/05/17 09:03:56;;;;;;;5.45;1.90;;;21.50;60.20;;;;;;5044681;28;20025;-66
2022/05/17 09:06:27;;;;;;;5.35;1.63;;;21.60;60.40;;;;;;5036256;28;20514;-66
2022/05/17 09:09:07;;;;;;;4.78;2.00;;;21.60;60.30;;;;;;5043720;28;20033;-66
2022/05/17 09:11:49;;;;;;;5.57;1.90;;;21.60;60.20;;;;;;5035340;28;20471;-66
2022/05/17 09:14:20;;;;;;;4.95;1.95;;;21.60;60.20;;;;;;5037447;28;20029;-66
2022/05/17 09:17:11;;;;;;;5.75;1.90;;;21.60;60.40;;;;;;5038124;28;20064;-67
2022/05/17 09:19:36;;;;;;;6.40;1.70;;;21.70;60.40;;;;;;5039610;28;20033;-66
2022/05/17 09:22:03;;;;;;;5.53;1.73;;;21.70;60.30;;;;;;5039139;28;20064;-66
2022/05/17 09:24:30;;;;;;;4.63;1.70;;;21.70;60.40;;;;;;5038040;28;20402;-66
2022/05/17 09:27:04;;;;;;;3.47;1.70;;;21.70;60.20;;;;;;5035948;28;20040;-66
2022/05/17 09:29:44;;;;;;;3.53;1.65;;;21.70;60.20;;;;;;5042553;28;20048;-66
2022/05/17 09:32:11;;;;;;;3.90;1.70;;;21.70;60.30;;;;;;5049570;28;20086;-66
2022/05/17 09:34:41;;;;;;;5.10;1.88;;;21.80;60.30;;;;;;5037304;28;20033;-66
2022/05/17 09:37:16;;;;;;;4.95;1.60;;;21.70;60.00;;;;;;5034356;28;20533;-66
2022/05/17 09:39:49;;;;;;;2.38;1.38;;;21.70;60.20;;;;;;5039642;28;20517;-66
2022/05/17 09:42:36;;;;;;;5.25;1.63;;;21.70;60.10;;;;;;5036490;28;20045;-66
2022/05/17 09:45:03;;;;;;;4.30;1.50;;;21.80;60.30;;;;;;5041378;28;20021;-66
2022/05/17 09:47:30;;;;;;;5.75;1.70;;;21.80;60.20;;;;;;5070022;28;20403;-67
2022/05/17 09:52:45;;;;;;;5.05;1.40;;;21.80;60.20;;;;;;5036303;28;20040;-66
2022/05/17 09:55:20;;;;;;;5.35;1.60;;;21.90;60.00;;;;;;5033330;28;20536;-66
2022/05/17 09:57:52;;;;;;;3.63;1.50;;;21.90;60.10;;;;;;5038449;28;20033;-66
2022/05/17 10:00:41;;;;;;;5.63;1.60;;;21.90;60.10;;;;;;5034036;28;20160;-66
2022/05/17 10:03:31;;;;;;;4.95;1.77;;;21.90;60.20;;;;;;5035306;28;20037;-66
2022/05/17 10:05:58;;;;;;;4.15;1.70;;;21.90;60.00;;;;;;5032022;28;20514;-66
2022/05/17 10:08:58;;;;;;;3.60;1.48;;;21.90;60.00;;;;;;5037009;28;20202;-66
2022/05/17 10:11:24;;;;;;;5.55;1.73;;;21.90;60.00;;;;;;5025177;28;20423;-66
2022/05/17 10:13:53;;;;;;;3.03;1.55;;;22.00;60.10;;;;;;5003574;28;20057;-66
2022/05/17 10:16:29;;;;;;;3.45;1.67;;;22.00;60.10;;;;;;5023192;28;20680;-66
2022/05/17 10:19:13;;;;;;;5.05;1.75;;;22.00;60.10;;;;;;5008295;28;20580;-66
2022/05/17 10:21:43;;;;;;;4.25;1.70;;;22.00;60.10;;;;;;5005571;28;20064;-66
2022/05/17 10:24:29;;;;;;;4.13;1.63;;;22.10;60.10;;;;;;5000407;28;20076;-66
2022/05/17 10:27:23;;;;;;;5.35;1.80;;;22.10;60.00;;;;;;5026814;28;20354;-66
2022/05/17 10:29:50;;;;;;;4.22;1.60;;;22.10;60.10;;;;;;5009736;28;20045;-66
2022/05/17 10:32:26;;;;;;;4.30;1.67;;;22.10;60.10;;;;;;5006565;28;20486;-66
2022/05/17 10:34:54;;;;;;;3.85;1.58;;;22.10;60.00;;;;;;5007933;28;20041;-66
2022/05/17 10:37:22;;;;;;;5.35;1.75;;;22.10;59.90;;;;;;5020859;28;20079;-66
2022/05/17 10:39:52;;;;;;;4.20;1.80;;;22.20;60.00;;;;;;5023192;28;20044;-66
2022/05/17 10:42:18;;;;;;;4.25;1.60;;;22.20;59.90;;;;;;5005234;28;20117;-66
2022/05/17 10:44:47;;;;;;;6.30;1.98;;;22.20;59.90;;;;;;5023188;28;20033;-66
2022/05/17 10:47:34;;;;;;;5.18;1.70;;;22.20;60.00;;;;;;5009576;28;20037;-65
2022/05/17 10:50:07;;;;;;;5.05;1.50;;;22.20;59.90;;;;;;5033697;28;20028;-66
2022/05/17 10:53:06;;;;;;;2.33;1.30;;;22.30;60.00;;;;;;5066691;28;20022;-66
2022/05/17 10:56:01;;;;;;;4.03;1.65;;;22.30;59.90;;;;;;5036587;28;20037;-66
2022/05/17 10:58:48;;;;;;;3.20;1.50;;;22.30;59.90;;;;;;5021087;28;20867;-66
2022/05/17 11:01:32;;;;;;;4.20;1.48;;;22.30;59.90;;;;;;5023376;28;20052;-65
2022/05/17 11:04:21;;;;;;;4.68;1.80;;;22.30;59.90;;;;;;5024494;28;20038;-66
2022/05/17 11:07:15;;;;;;;3.00;1.50;;;22.40;60.00;;;;;;5020193;28;20037;-67
2022/05/17 11:09:43;;;;;;;4.32;1.98;;;22.40;60.00;;;;;;5004118;28;20041;-66
2022/05/17 11:12:13;;;;;;;5.43;1.70;;;22.40;60.00;;;;;;5023998;28;20033;-66
2022/05/17 11:14:51;;;;;;;4.63;1.67;;;22.40;59.90;;;;;;5024817;28;20037;-66
2022/05/17 11:17:36;;;;;;;3.65;1.60;;;22.50;60.00;;;;;;5021054;28;20041;-67
2022/05/17 11:20:10;;;;;;;4.05;1.77;;;22.50;61.00;;;;;;5003645;28;20502;-66
2022/05/17 11:22:39;;;;;;;5.20;1.70;;;22.50;59.90;;;;;;5007810;28;20092;-66
2022/05/17 11:25:17;;;;;;;3.90;1.60;;;22.50;59.90;;;;;;5020925;28;20065;-66
2022/05/17 11:28:07;;;;;;;5.90;2.00;;;22.50;59.90;;;;;;5004913;28;20041;-66
2022/05/17 11:30:57;;;;;;;4.25;1.58;;;22.60;60.00;;;;;;5022094;28;20038;-66
2022/05/17 11:33:33;;;;;;;3.72;1.80;;;22.50;59.90;;;;;;5022805;28;20465;-66
2022/05/17 11:36:09;;;;;;;2.78;1.50;;;22.60;59.90;;;;;;5033355;28;20041;-66
2022/05/17 11:38:34;;;;;;;4.70;1.67;;;22.70;59.90;;;;;;5065388;28;20032;-66
2022/05/17 11:41:01;;;;;;;4.07;1.73;;;22.70;59.90;;;;;;5031758;28;20029;-66
2022/05/17 11:43:45;;;;;;;4.22;1.48;;;22.70;59.90;;;;;;5038147;28;20026;-66
2022/05/17 11:46:30;;;;;;;5.40;1.73;;;22.60;59.90;;;;;;5062732;28;20038;-66
2022/05/17 11:49:00;;;;;;;3.53;1.60;;;22.70;59.90;;;;;;5036462;28;20032;-67
2022/05/17 11:51:35;;;;;;;4.18;1.77;;;22.70;59.90;;;;;;5032416;28;20075;-66
2022/05/17 11:54:00;;;;;;;;;;;22.70;59.90;;;;;;5031906;28;20059;-66
2022/05/17 11:56:26;;;;;;;4.22;1.85;;;22.70;59.80;;;;;;5035702;28;20020;-67
2022/05/17 11:58:56;;;;;;;4.53;1.80;;;22.70;60.00;;;;;;5034615;28;20115;-66
2022/05/17 12:01:31;;;;;;;3.83;1.70;;;22.80;60.00;;;;;;5034345;28;20037;-67
2022/05/17 12:04:02;;;;;;;4.60;1.80;;;22.80;60.10;;;;;;5036825;28;20021;-66
2022/05/17 12:06:43;;;;;;;3.08;1.60;;;22.80;60.10;;;;;;5031025;28;20092;-66
2022/05/17 12:09:32;;;;;;;5.25;1.63;;;22.80;60.00;;;;;;5038054;28;20025;-67
2022/05/17 12:12:16;;;;;;;4.88;1.70;;;22.80;59.90;;;;;;5033439;28;20441;-66
2022/05/17 12:14:48;;;;;;;3.50;1.70;;;22.90;59.80;;;;;;5065691;28;20041;-66
2022/05/17 12:17:24;;;;;;;3.88;1.80;;;22.80;59.80;;;;;;5032708;28;20065;-66
2022/05/17 12:20:16;;;;;;;3.88;1.60;;;22.90;59.90;;;;;;5049610;28;20025;-67
2022/05/17 12:23:05;;;;;;;4.53;1.63;;;22.90;60.00;;;;;;5066101;28;20384;-66
2022/05/17 12:25:46;;;;;;;4.90;1.77;;;22.90;60.00;;;;;;5035961;28;20025;-66
2022/05/17 12:28:20;;;;;;;3.95;1.77;;;22.90;59.90;;;;;;5036538;28;20108;-66
2022/05/17 12:30:54;;;;;;;3.37;1.47;;;22.90;59.90;;;;;;5040540;28;20021;-66
2022/05/17 12:33:43;;;;;;;3.72;1.70;;;22.90;59.80;;;;;;5064692;28;20025;-67
2022/05/17 12:36:37;;;;;;;4.20;1.65;;;23.00;59.80;;;;;;5032983;28;20037;-66
2022/05/17 12:44:54;;;;;;;3.58;1.63;;;23.00;59.70;;;;;;5035117;28;20045;-64
2022/05/17 12:47:37;;;;;;;5.45;1.65;;;23.10;59.60;;;;;;5033801;28;20053;-66
2022/05/17 12:50:03;;;;;;;4.00;1.63;;;23.10;59.60;;;;;;5033430;28;20025;-66
2022/05/17 12:52:31;;;;;;;5.35;2.03;;;23.10;59.50;;;;;;5032740;28;20386;-66
2022/05/17 12:55:02;;;;;;;3.28;1.70;;;23.20;59.60;;;;;;5030264;28;20025;-66
2022/05/17 12:57:35;;;;;;;4.20;1.80;;;23.20;59.50;;;;;;5036193;28;20040;-66
2022/05/17 13:00:29;;;;;;;3.57;1.50;;;23.20;59.40;;;;;;5030388;28;20064;-66
2022/05/17 13:03:01;;;;;;;5.22;1.80;;;23.20;59.40;;;;;;5032473;28;20291;-66
2022/05/17 13:05:34;;;;;;;4.00;1.60;;;23.20;59.30;;;;;;5038433;28;20120;-67
2022/05/17 13:08:07;;;;;;;3.75;1.48;;;23.30;59.20;;;;;;5035850;28;20082;-66
2022/05/17 13:10:33;;;;;;;3.40;1.60;;;23.30;59.50;;;;;;5039839;28;20040;-67
2022/05/17 13:12:59;;;;;;;4.07;1.63;;;23.30;59.30;;;;;;5030210;28;20025;-66
2022/05/17 13:15:25;;;;;;;2.42;1.52;;;23.30;59.50;;;;;;5035436;28;20025;-67
2022/05/17 13:17:56;;;;;;;4.50;1.77;;;23.30;59.50;;;;;;5040742;28;20018;-67